Talmage, Utah
Current Conditions -  °F | °C
As of 7:53 AM on Tuesday 21 Oct 2014 (Local Time) from KVEL Reporting Station
Clear Clear  
Wind Chill: 40°   Ceiling: Unl
Heat Index: 43°   Visibility: 10mi
Dew Point: 36°   Wind: 5mph
Humidity: 76%   Direction: 280°W
Pressure: 30.04"   Gusts: NA
Location:  40.34°N, 110.43°W
Report Text: KVEL 211353Z AUTO 28004KT 10SM CLR 06/02 A3004 RMK AO2 SLP148 T00610022
Loading
Personal Weather Stations






























Interactive Weather Map
Tropical Storm Tracking
New forecast layout! Learn more

10-Day Weather Forecast

Advertisements
Track Severe Weather on mobile